sensor_id;sensor_type;location;lat;lon;timestamp;pressure;altitude;pressure_sealevel;temperature;humidity
3524;BME280;1776;53.330;11.498;2022-10-04T00:02:23;53955.44;;;-147.39;78.27
3524;BME280;1776;53.330;11.498;2022-10-04T00:04:55;53996.41;;;-147.39;78.41
3524;BME280;1776;53.330;11.498;2022-10-04T00:07:37;53973.88;;;-147.39;78.23
3524;BME280;1776;53.330;11.498;2022-10-04T00:10:16;53998.47;;;-147.39;78.11
3524;BME280;1776;53.330;11.498;2022-10-04T00:12:48;54000.50;;;-147.39;78.27
3524;BME280;1776;53.330;11.498;2022-10-04T00:17:59;53977.97;;;-147.39;77.99
3524;BME280;1776;53.330;11.498;2022-10-04T00:25:52;54025.09;;;-147.39;77.95
3524;BME280;1776;53.330;11.498;2022-10-04T00:30:43;53963.63;;;-147.39;78.82
3524;BME280;1776;53.330;11.498;2022-10-04T00:33:09;53986.19;;;-147.39;79.24
3524;BME280;1776;53.330;11.498;2022-10-04T00:43:16;53982.06;;;-147.39;80.54
3524;BME280;1776;53.330;11.498;2022-10-04T00:45:49;54004.63;;;-147.39;80.71
3524;BME280;1776;53.330;11.498;2022-10-04T00:56:38;54137.78;;;-147.39;81.15
3524;BME280;1776;53.330;11.498;2022-10-04T01:02:02;54010.75;;;-147.39;80.82
3524;BME280;1776;53.330;11.498;2022-10-04T01:04:36;53959.53;;;-147.39;80.62
3524;BME280;1776;53.330;11.498;2022-10-04T01:07:03;54039.44;;;-147.39;80.45
3524;BME280;1776;53.330;11.498;2022-10-04T01:09:33;53998.47;;;-147.39;80.33
3524;BME280;1776;53.330;11.498;2022-10-04T01:12:12;53971.84;;;-147.39;80.01
3524;BME280;1776;53.330;11.498;2022-10-04T01:15:08;54000.50;;;-147.39;79.88
3524;BME280;1776;53.330;11.498;2022-10-04T01:17:36;53963.63;;;-147.39;79.97
3524;BME280;1776;53.330;11.498;2022-10-04T01:20:01;53963.63;;;-147.39;79.76
3524;BME280;1776;53.330;11.498;2022-10-04T01:24:58;53955.44;;;-147.39;79.34
3524;BME280;1776;53.330;11.498;2022-10-04T01:27:40;53955.44;;;-147.39;79.01
3524;BME280;1776;53.330;11.498;2022-10-04T01:30:10;53969.78;;;-147.39;78.76
3524;BME280;1776;53.330;11.498;2022-10-04T01:32:37;53961.59;;;-147.39;78.63
3524;BME280;1776;53.330;11.498;2022-10-04T01:35:03;53953.41;;;-147.39;78.45
3524;BME280;1776;53.330;11.498;2022-10-04T01:37:28;53951.34;;;-147.39;78.53
3524;BME280;1776;53.330;11.498;2022-10-04T01:39:53;53969.78;;;-147.39;78.49
3524;BME280;1776;53.330;11.498;2022-10-04T01:42:23;53975.94;;;-147.39;78.31
3524;BME280;1776;53.330;11.498;2022-10-04T01:45:06;53986.19;;;-147.39;78.01
3524;BME280;1776;53.330;11.498;2022-10-04T01:47:40;54021.00;;;-147.39;77.96
3524;BME280;1776;53.330;11.498;2022-10-04T01:50:21;53986.19;;;-147.39;77.82
3524;BME280;1776;53.330;11.498;2022-10-04T01:52:55;53977.97;;;-147.39;77.99
3524;BME280;1776;53.330;11.498;2022-10-04T01:55:28;53969.78;;;-147.39;78.09
3524;BME280;1776;53.330;11.498;2022-10-04T01:58:03;53959.53;;;-147.39;78.07
3524;BME280;1776;53.330;11.498;2022-10-04T02:00:33;53949.28;;;-147.39;77.71
3524;BME280;1776;53.330;11.498;2022-10-04T02:03:03;53957.50;;;-147.39;77.54
3524;BME280;1776;53.330;11.498;2022-10-04T02:05:34;53963.63;;;-147.39;77.67
3524;BME280;1776;53.330;11.498;2022-10-04T02:08:04;53986.19;;;-147.39;77.78
3524;BME280;1776;53.330;11.498;2022-10-04T02:10:32;53961.59;;;-147.39;77.84
3524;BME280;1776;53.330;11.498;2022-10-04T02:13:00;53990.28;;;-147.39;78.11
3524;BME280;1776;53.330;11.498;2022-10-04T02:15:27;53986.19;;;-147.39;78.11
3524;BME280;1776;53.330;11.498;2022-10-04T02:17:54;53955.44;;;-147.39;78.20
3524;BME280;1776;53.330;11.498;2022-10-04T02:20:22;53949.28;;;-147.39;78.21
3524;BME280;1776;53.330;11.498;2022-10-04T02:22:53;53957.50;;;-147.39;77.70
3524;BME280;1776;53.330;11.498;2022-10-04T02:25:20;53973.88;;;-147.39;78.14
3524;BME280;1776;53.330;11.498;2022-10-04T02:27:46;53986.19;;;-147.39;78.21
3524;BME280;1776;53.330;11.498;2022-10-04T02:30:12;53965.69;;;-147.39;78.06
3524;BME280;1776;53.330;11.498;2022-10-04T02:32:40;53980.03;;;-147.39;77.98
3524;BME280;1776;53.330;11.498;2022-10-04T02:35:27;53955.44;;;-147.39;78.05
3524;BME280;1776;53.330;11.498;2022-10-04T02:38:00;53957.50;;;-147.39;78.29
3524;BME280;1776;53.330;11.498;2022-10-04T02:40:30;53957.50;;;-147.39;78.15
3524;BME280;1776;53.330;11.498;2022-10-04T02:43:02;53969.78;;;-147.39;78.16
3524;BME280;1776;53.330;11.498;2022-10-04T02:45:48;53969.78;;;-147.39;78.17
3524;BME280;1776;53.330;11.498;2022-10-04T02:50:52;53982.06;;;-147.39;78.26
3524;BME280;1776;53.330;11.498;2022-10-04T02:53:39;53982.06;;;-147.39;78.07
3524;BME280;1776;53.330;11.498;2022-10-04T02:56:09;54023.06;;;-147.39;78.03
3524;BME280;1776;53.330;11.498;2022-10-04T02:58:37;53953.41;;;-147.39;78.03
3524;BME280;1776;53.330;11.498;2022-10-04T03:01:04;53947.25;;;-147.39;77.95
3524;BME280;1776;53.330;11.498;2022-10-04T03:03:34;53990.28;;;-147.39;77.72
3524;BME280;1776;53.330;11.498;2022-10-04T03:06:10;53967.72;;;-147.39;77.32
3524;BME280;1776;53.330;11.498;2022-10-04T03:08:57;53984.13;;;-147.39;77.25
3524;BME280;1776;53.330;11.498;2022-10-04T03:11:26;53984.13;;;-147.39;77.61
3524;BME280;1776;53.330;11.498;2022-10-04T03:13:55;53969.78;;;-147.39;77.52
3524;BME280;1776;53.330;11.498;2022-10-04T03:16:21;53965.69;;;-147.39;77.37
3524;BME280;1776;53.330;11.498;2022-10-04T03:18:49;53977.97;;;-147.39;77.28
3524;BME280;1776;53.330;11.498;2022-10-04T03:21:17;53996.41;;;-147.39;77.26
3524;BME280;1776;53.330;11.498;2022-10-04T03:23:44;53986.19;;;-147.39;77.53
3524;BME280;1776;53.330;11.498;2022-10-04T03:28:56;54006.66;;;-147.39;78.15
3524;BME280;1776;53.330;11.498;2022-10-04T03:31:25;53984.13;;;-147.39;78.06
3524;BME280;1776;53.330;11.498;2022-10-04T03:33:53;53924.72;;;-147.39;78.13
3524;BME280;1776;53.330;11.498;2022-10-04T03:36:20;54016.91;;;-147.39;78.01
3524;BME280;1776;53.330;11.498;2022-10-04T03:38:47;53965.69;;;-147.39;78.30
3524;BME280;1776;53.330;11.498;2022-10-04T03:41:14;53957.50;;;-147.39;78.34
3524;BME280;1776;53.330;11.498;2022-10-04T03:43:45;53977.97;;;-147.39;78.75
3524;BME280;1776;53.330;11.498;2022-10-04T03:46:13;53980.03;;;-147.39;78.95
3524;BME280;1776;53.330;11.498;2022-10-04T03:48:43;53971.84;;;-147.39;78.80
3524;BME280;1776;53.330;11.498;2022-10-04T03:51:13;53963.63;;;-147.39;78.84
3524;BME280;1776;53.330;11.498;2022-10-04T03:53:45;53992.31;;;-147.39;78.99
3524;BME280;1776;53.330;11.498;2022-10-04T03:56:24;53969.78;;;-147.39;78.78
3524;BME280;1776;53.330;11.498;2022-10-04T03:58:50;53963.63;;;-147.39;78.84
3524;BME280;1776;53.330;11.498;2022-10-04T04:06:41;53986.19;;;-147.39;79.68
3524;BME280;1776;53.330;11.498;2022-10-04T04:09:20;53971.84;;;-147.39;79.24
3524;BME280;1776;53.330;11.498;2022-10-04T04:11:48;53965.69;;;-147.39;79.24
3524;BME280;1776;53.330;11.498;2022-10-04T04:14:20;53977.97;;;-147.39;79.43
3524;BME280;1776;53.330;11.498;2022-10-04T04:16:48;53990.28;;;-147.39;79.70
3524;BME280;1776;53.330;11.498;2022-10-04T04:19:17;53990.28;;;-147.39;79.60
3524;BME280;1776;53.330;11.498;2022-10-04T04:21:46;53975.94;;;-147.39;79.64
3524;BME280;1776;53.330;11.498;2022-10-04T04:24:22;53994.38;;;-147.39;79.38
3524;BME280;1776;53.330;11.498;2022-10-04T04:26:53;53965.69;;;-147.39;79.24
3524;BME280;1776;53.330;11.498;2022-10-04T04:29:35;53969.78;;;-147.39;79.05
3524;BME280;1776;53.330;11.498;2022-10-04T04:32:16;53992.31;;;-147.39;78.87
3524;BME280;1776;53.330;11.498;2022-10-04T04:34:59;53982.06;;;-147.39;78.84
3524;BME280;1776;53.330;11.498;2022-10-04T04:37:31;54008.72;;;-147.39;78.33
3524;BME280;1776;53.330;11.498;2022-10-04T04:40:15;53986.19;;;-147.39;78.18
3524;BME280;1776;53.330;11.498;2022-10-04T04:42:42;53939.06;;;-147.39;77.88
3524;BME280;1776;53.330;11.498;2022-10-04T04:45:16;53984.13;;;-147.39;77.44
3524;BME280;1776;53.330;11.498;2022-10-04T04:47:45;53963.63;;;-147.39;77.36
3524;BME280;1776;53.330;11.498;2022-10-04T04:50:15;53973.88;;;-147.39;77.17
3524;BME280;1776;53.330;11.498;2022-10-04T04:52:47;53969.78;;;-147.39;76.93
3524;BME280;1776;53.330;11.498;2022-10-04T04:55:19;53980.03;;;-147.39;76.45
3524;BME280;1776;53.330;11.498;2022-10-04T04:57:47;53971.84;;;-147.39;76.60
3524;BME280;1776;53.330;11.498;2022-10-04T05:00:17;53982.06;;;-147.39;76.33
3524;BME280;1776;53.330;11.498;2022-10-04T05:02:50;53953.41;;;-147.39;76.13
3524;BME280;1776;53.330;11.498;2022-10-04T05:05:22;53984.13;;;-147.39;76.16
3524;BME280;1776;53.330;11.498;2022-10-04T05:07:49;53967.72;;;-147.39;76.27
3524;BME280;1776;53.330;11.498;2022-10-04T05:10:32;53994.38;;;-147.39;76.44
3524;BME280;1776;53.330;11.498;2022-10-04T05:13:02;53959.53;;;-147.39;76.29
3524;BME280;1776;53.330;11.498;2022-10-04T05:15:32;53971.84;;;-147.39;76.39
3524;BME280;1776;53.330;11.498;2022-10-04T05:17:59;53990.28;;;-147.39;76.14
3524;BME280;1776;53.330;11.498;2022-10-04T05:20:25;53988.22;;;-147.39;76.12
3524;BME280;1776;53.330;11.498;2022-10-04T05:22:51;53984.13;;;-147.39;75.90
3524;BME280;1776;53.330;11.498;2022-10-04T05:25:31;53955.44;;;-147.39;76.10
3524;BME280;1776;53.330;11.498;2022-10-04T05:27:58;53961.59;;;-147.39;76.29
3524;BME280;1776;53.330;11.498;2022-10-04T05:30:52;54027.16;;;-147.39;76.47
3524;BME280;1776;53.330;11.498;2022-10-04T05:33:36;54002.56;;;-147.39;76.35
3524;BME280;1776;53.330;11.498;2022-10-04T05:38:52;53980.03;;;-147.39;76.24
3524;BME280;1776;53.330;11.498;2022-10-04T05:41:30;53992.31;;;-147.39;76.27
3524;BME280;1776;53.330;11.498;2022-10-04T05:43:56;53996.41;;;-147.39;76.07
3524;BME280;1776;53.330;11.498;2022-10-04T05:46:24;53992.31;;;-147.39;76.39
3524;BME280;1776;53.330;11.498;2022-10-04T05:49:05;54008.72;;;-147.39;76.08
3524;BME280;1776;53.330;11.498;2022-10-04T05:51:34;53980.03;;;-147.39;76.06
3524;BME280;1776;53.330;11.498;2022-10-04T05:54:12;53969.78;;;-147.39;76.08
3524;BME280;1776;53.330;11.498;2022-10-04T06:00:00;53977.97;;;-147.39;75.81
3524;BME280;1776;53.330;11.498;2022-10-04T06:03:08;53992.31;;;-147.39;76.12
3524;BME280;1776;53.330;11.498;2022-10-04T06:05:59;53994.38;;;-147.39;76.63
3524;BME280;1776;53.330;11.498;2022-10-04T06:08:38;54039.44;;;-147.39;77.16
3524;BME280;1776;53.330;11.498;2022-10-04T06:11:21;53982.06;;;-147.39;77.67
3524;BME280;1776;53.330;11.498;2022-10-04T06:14:03;53998.47;;;-147.39;77.55
3524;BME280;1776;53.330;11.498;2022-10-04T06:19:39;53961.59;;;-147.39;77.70
3524;BME280;1776;53.330;11.498;2022-10-04T06:22:18;53992.31;;;-147.39;77.72
3524;BME280;1776;53.330;11.498;2022-10-04T06:24:49;53980.03;;;-147.39;77.62
3524;BME280;1776;53.330;11.498;2022-10-04T06:30:06;53992.31;;;-147.39;76.97
3524;BME280;1776;53.330;11.498;2022-10-04T06:32:57;53977.97;;;-147.39;76.76
3524;BME280;1776;53.330;11.498;2022-10-04T06:52:57;54004.63;;;-147.39;77.74
3524;BME280;1776;53.330;11.498;2022-10-04T07:03:54;53990.28;;;-147.39;78.13
3524;BME280;1776;53.330;11.498;2022-10-04T07:06:32;53973.88;;;-147.39;77.86
3524;BME280;1776;53.330;11.498;2022-10-04T07:09:01;54006.66;;;-147.39;77.64
3524;BME280;1776;53.330;11.498;2022-10-04T07:11:46;54029.19;;;-147.39;77.76
3524;BME280;1776;53.330;11.498;2022-10-04T07:14:18;53992.31;;;-147.39;77.91
3524;BME280;1776;53.330;11.498;2022-10-04T07:17:01;53988.22;;;-147.39;78.22
3524;BME280;1776;53.330;11.498;2022-10-04T07:19:38;53998.47;;;-147.39;77.76
3524;BME280;1776;53.330;11.498;2022-10-04T07:29:54;54002.56;;;-147.39;77.28
3524;BME280;1776;53.330;11.498;2022-10-04T07:32:28;53996.41;;;-147.39;77.36
3524;BME280;1776;53.330;11.498;2022-10-04T07:37:48;54008.72;;;-147.39;76.75
3524;BME280;1776;53.330;11.498;2022-10-04T07:40:27;53990.28;;;-147.39;76.98
3524;BME280;1776;53.330;11.498;2022-10-04T07:43:00;53992.31;;;-147.39;76.93
3524;BME280;1776;53.330;11.498;2022-10-04T07:45:31;54021.00;;;-147.39;76.81
3524;BME280;1776;53.330;11.498;2022-10-04T07:48:04;53977.97;;;-147.39;76.68
3524;BME280;1776;53.330;11.498;2022-10-04T07:50:40;53984.13;;;-147.39;76.14
3524;BME280;1776;53.330;11.498;2022-10-04T07:53:17;54006.66;;;-147.39;76.23
3524;BME280;1776;53.330;11.498;2022-10-04T07:55:54;53994.38;;;-147.39;76.31
3524;BME280;1776;53.330;11.498;2022-10-04T08:01:38;54016.91;;;-147.39;76.35
3524;BME280;1776;53.330;11.498;2022-10-04T08:05:14;53975.94;;;-147.39;76.46
3524;BME280;1776;53.330;11.498;2022-10-04T08:07:20;54002.56;;;-147.39;76.48
3524;BME280;1776;53.330;11.498;2022-10-04T08:12:49;53975.94;;;-147.39;76.72
3524;BME280;1776;53.330;11.498;2022-10-04T08:15:35;53984.13;;;-147.39;76.61
3524;BME280;1776;53.330;11.498;2022-10-04T08:20:59;54000.50;;;-147.39;76.17
3524;BME280;1776;53.330;11.498;2022-10-04T08:32:40;54000.50;;;-147.39;74.73
3524;BME280;1776;53.330;11.498;2022-10-04T08:35:31;53988.22;;;-147.39;74.87
3524;BME280;1776;53.330;11.498;2022-10-04T08:38:39;53969.78;;;-147.39;74.81
3524;BME280;1776;53.330;11.498;2022-10-04T08:46:34;53988.22;;;-147.39;74.31
3524;BME280;1776;53.330;11.498;2022-10-04T09:00:15;53971.84;;;-147.39;73.55
3524;BME280;1776;53.330;11.498;2022-10-04T09:13:50;53980.03;;;-147.39;73.79
3524;BME280;1776;53.330;11.498;2022-10-04T09:16:36;53986.19;;;-147.39;73.93
3524;BME280;1776;53.330;11.498;2022-10-04T09:22:01;53945.19;;;-147.39;73.72
3524;BME280;1776;53.330;11.498;2022-10-04T09:24:44;53961.59;;;-147.39;73.44
3524;BME280;1776;53.330;11.498;2022-10-04T09:30:21;53928.81;;;-147.39;72.93
3524;BME280;1776;53.330;11.498;2022-10-04T09:35:27;53953.41;;;-147.39;71.78
3524;BME280;1776;53.330;11.498;2022-10-04T09:41:21;53928.81;;;-147.39;70.97
3524;BME280;1776;53.330;11.498;2022-10-04T09:43:58;53957.50;;;-147.39;70.51
3524;BME280;1776;53.330;11.498;2022-10-04T09:46:52;53928.81;;;-147.39;70.09
3524;BME280;1776;53.330;11.498;2022-10-04T09:49:51;53934.97;;;-147.39;70.41
3524;BME280;1776;53.330;11.498;2022-10-04T09:52:53;53947.25;;;-147.39;69.91
3524;BME280;1776;53.330;11.498;2022-10-04T10:06:40;53922.66;;;-147.39;68.92
3524;BME280;1776;53.330;11.498;2022-10-04T10:09:25;53926.75;;;-147.39;68.47
3524;BME280;1776;53.330;11.498;2022-10-04T10:12:27;53887.84;;;-147.39;68.10
3524;BME280;1776;53.330;11.498;2022-10-04T10:15:25;53902.19;;;-147.39;68.00
3524;BME280;1776;53.330;11.498;2022-10-04T10:28:20;53957.50;;;-147.39;66.61
3524;BME280;1776;53.330;11.498;2022-10-04T10:37:08;53889.88;;;-147.39;66.32
3524;BME280;1776;53.330;11.498;2022-10-04T10:51:27;53844.81;;;-147.39;60.14
3524;BME280;1776;53.330;11.498;2022-10-04T10:54:43;53861.19;;;-147.39;58.65
3524;BME280;1776;53.330;11.498;2022-10-04T10:57:41;53834.56;;;-147.39;58.60
3524;BME280;1776;53.330;11.498;2022-10-04T11:00:18;53822.28;;;-147.39;57.95
3524;BME280;1776;53.330;11.498;2022-10-04T11:03:10;53822.28;;;-147.39;57.39
3524;BME280;1776;53.330;11.498;2022-10-04T11:29:05;53805.88;;;-147.39;56.12
3524;BME280;1776;53.330;11.498;2022-10-04T11:40:38;53832.53;;;-147.39;57.40
3524;BME280;1776;53.330;11.498;2022-10-04T11:48:46;53789.50;;;-147.39;56.51
3524;BME280;1776;53.330;11.498;2022-10-04T11:51:46;53791.53;;;-147.39;55.65
3524;BME280;1776;53.330;11.498;2022-10-04T11:59:44;53822.28;;;-147.39;56.33
3524;BME280;1776;53.330;11.498;2022-10-04T12:05:16;53799.75;;;-147.39;55.43
3524;BME280;1776;53.330;11.498;2022-10-04T12:07:49;53797.69;;;-147.39;55.27
3524;BME280;1776;53.330;11.498;2022-10-04T12:10:29;53822.28;;;-147.39;55.37
3524;BME280;1776;53.330;11.498;2022-10-04T12:15:58;53779.25;;;-147.39;55.80
3524;BME280;1776;53.330;11.498;2022-10-04T12:24:41;53799.75;;;-147.39;53.62
3524;BME280;1776;53.330;11.498;2022-10-04T12:33:05;53777.22;;;-147.39;53.31
3524;BME280;1776;53.330;11.498;2022-10-04T12:35:44;53803.84;;;-147.39;53.96
3524;BME280;1776;53.330;11.498;2022-10-04T12:43:53;53832.53;;;-147.39;55.00
3524;BME280;1776;53.330;11.498;2022-10-04T12:50:04;53822.28;;;-147.39;55.54
3524;BME280;1776;53.330;11.498;2022-10-04T12:52:47;53781.31;;;-147.39;55.71
3524;BME280;1776;53.330;11.498;2022-10-04T12:58:13;53789.50;;;-147.39;54.48
3524;BME280;1776;53.330;11.498;2022-10-04T13:00:42;53807.94;;;-147.39;53.70
3524;BME280;1776;53.330;11.498;2022-10-04T13:03:33;53791.53;;;-147.39;53.98
3524;BME280;1776;53.330;11.498;2022-10-04T13:06:19;53826.38;;;-147.39;52.94
3524;BME280;1776;53.330;11.498;2022-10-04T13:11:43;53807.94;;;-147.39;53.22
3524;BME280;1776;53.330;11.498;2022-10-04T13:20:14;53771.06;;;-147.39;52.49
3524;BME280;1776;53.330;11.498;2022-10-04T13:22:54;53793.59;;;-147.39;51.94
3524;BME280;1776;53.330;11.498;2022-10-04T13:25:34;53775.16;;;-147.39;52.48
3524;BME280;1776;53.330;11.498;2022-10-04T13:28:23;53814.09;;;-147.39;52.51
3524;BME280;1776;53.330;11.498;2022-10-04T13:31:05;53832.53;;;-147.39;52.12
3524;BME280;1776;53.330;11.498;2022-10-04T13:33:42;53805.88;;;-147.39;52.17
3524;BME280;1776;53.330;11.498;2022-10-04T13:36:36;53791.53;;;-147.39;52.24
3524;BME280;1776;53.330;11.498;2022-10-04T13:42:19;53783.34;;;-147.39;52.20
3524;BME280;1776;53.330;11.498;2022-10-04T13:44:57;53793.59;;;-147.39;52.01
3524;BME280;1776;53.330;11.498;2022-10-04T13:56:06;53826.38;;;-147.39;52.31
3524;BME280;1776;53.330;11.498;2022-10-04T14:05:16;53820.22;;;-147.39;52.84
3524;BME280;1776;53.330;11.498;2022-10-04T14:08:14;53795.66;;;-147.39;52.36
3524;BME280;1776;53.330;11.498;2022-10-04T14:16:42;53812.03;;;-147.39;53.50
3524;BME280;1776;53.330;11.498;2022-10-04T14:22:23;53822.28;;;-147.39;52.53
3524;BME280;1776;53.330;11.498;2022-10-04T14:25:20;53807.94;;;-147.39;52.50
3524;BME280;1776;53.330;11.498;2022-10-04T14:36:41;53814.09;;;-147.39;52.11
3524;BME280;1776;53.330;11.498;2022-10-04T14:42:27;53814.09;;;-147.39;52.14
3524;BME280;1776;53.330;11.498;2022-10-04T14:45:27;53820.22;;;-147.39;51.99
3524;BME280;1776;53.330;11.498;2022-10-04T14:51:14;53795.66;;;-147.39;52.35
3524;BME280;1776;53.330;11.498;2022-10-04T14:53:58;53824.31;;;-147.39;52.39
3524;BME280;1776;53.330;11.498;2022-10-04T14:56:41;53793.59;;;-147.39;52.65
3524;BME280;1776;53.330;11.498;2022-10-04T14:59:26;53828.41;;;-147.39;52.76
3524;BME280;1776;53.330;11.498;2022-10-04T15:04:36;53855.06;;;-147.39;52.97
3524;BME280;1776;53.330;11.498;2022-10-04T15:07:32;53787.44;;;-147.39;53.29
3524;BME280;1776;53.330;11.498;2022-10-04T15:10:15;53812.03;;;-147.39;52.65
3524;BME280;1776;53.330;11.498;2022-10-04T15:12:54;53830.47;;;-147.39;52.72
3524;BME280;1776;53.330;11.498;2022-10-04T15:15:29;53809.97;;;-147.39;53.00
3524;BME280;1776;53.330;11.498;2022-10-04T15:18:00;53818.19;;;-147.39;53.41
3524;BME280;1776;53.330;11.498;2022-10-04T15:25:48;53826.38;;;-147.39;53.36
3524;BME280;1776;53.330;11.498;2022-10-04T15:31:51;53809.97;;;-147.39;53.69
3524;BME280;1776;53.330;11.498;2022-10-04T15:34:43;53809.97;;;-147.39;53.90
3524;BME280;1776;53.330;11.498;2022-10-04T15:37:33;53826.38;;;-147.39;53.94
3524;BME280;1776;53.330;11.498;2022-10-04T15:42:35;53848.91;;;-147.39;53.47
3524;BME280;1776;53.330;11.498;2022-10-04T15:50:28;53834.56;;;-147.39;53.83
3524;BME280;1776;53.330;11.498;2022-10-04T15:53:38;53844.81;;;-147.39;53.83
3524;BME280;1776;53.330;11.498;2022-10-04T16:01:53;53822.28;;;-147.39;54.75
3524;BME280;1776;53.330;11.498;2022-10-04T16:04:58;53846.88;;;-147.39;54.88
3524;BME280;1776;53.330;11.498;2022-10-04T16:15:39;53857.09;;;-147.39;55.16
3524;BME280;1776;53.330;11.498;2022-10-04T16:18:37;53822.28;;;-147.39;55.22
3524;BME280;1776;53.330;11.498;2022-10-04T16:21:34;53861.19;;;-147.39;54.87
3524;BME280;1776;53.330;11.498;2022-10-04T16:32:17;53809.97;;;-147.39;55.00
3524;BME280;1776;53.330;11.498;2022-10-04T16:39:57;53902.19;;;-147.39;55.20
3524;BME280;1776;53.330;11.498;2022-10-04T16:47:55;53855.06;;;-147.39;55.28
3524;BME280;1776;53.330;11.498;2022-10-04T16:50:59;53801.78;;;-147.39;55.35
3524;BME280;1776;53.330;11.498;2022-10-04T16:56:25;53844.81;;;-147.39;55.25
3524;BME280;1776;53.330;11.498;2022-10-04T17:04:47;53850.97;;;-147.39;55.92
3524;BME280;1776;53.330;11.498;2022-10-04T17:10:16;53850.97;;;-147.39;56.10
3524;BME280;1776;53.330;11.498;2022-10-04T17:13:14;53846.88;;;-147.39;56.09
3524;BME280;1776;53.330;11.498;2022-10-04T17:15:46;53842.75;;;-147.39;56.55
3524;BME280;1776;53.330;11.498;2022-10-04T17:18:30;53863.25;;;-147.39;56.73
3524;BME280;1776;53.330;11.498;2022-10-04T17:21:03;53844.81;;;-147.39;56.84
3524;BME280;1776;53.330;11.498;2022-10-04T17:23:39;53853.00;;;-147.39;56.98
3524;BME280;1776;53.330;11.498;2022-10-04T17:26:23;53873.50;;;-147.39;57.26
3524;BME280;1776;53.330;11.498;2022-10-04T17:28:59;53863.25;;;-147.39;57.27
3524;BME280;1776;53.330;11.498;2022-10-04T17:37:28;53861.19;;;-147.39;58.35
3524;BME280;1776;53.330;11.498;2022-10-04T17:42:36;53879.63;;;-147.39;58.17
3524;BME280;1776;53.330;11.498;2022-10-04T17:47:36;53889.88;;;-147.39;58.67
3524;BME280;1776;53.330;11.498;2022-10-04T17:50:30;53885.78;;;-147.39;58.98
3524;BME280;1776;53.330;11.498;2022-10-04T17:53:20;53900.13;;;-147.39;59.28
3524;BME280;1776;53.330;11.498;2022-10-04T17:56:06;53873.50;;;-147.39;59.12
3524;BME280;1776;53.330;11.498;2022-10-04T17:58:49;53887.84;;;-147.39;59.00
3524;BME280;1776;53.330;11.498;2022-10-04T18:01:32;53875.53;;;-147.39;59.30
3524;BME280;1776;53.330;11.498;2022-10-04T18:04:25;53883.75;;;-147.39;59.32
3524;BME280;1776;53.330;11.498;2022-10-04T18:09:42;53869.41;;;-147.39;59.51
3524;BME280;1776;53.330;11.498;2022-10-04T18:12:13;53896.03;;;-147.39;59.76
3524;BME280;1776;53.330;11.498;2022-10-04T18:15:01;53877.59;;;-147.39;59.84
3524;BME280;1776;53.330;11.498;2022-10-04T18:17:41;53912.41;;;-147.39;60.02
3524;BME280;1776;53.330;11.498;2022-10-04T18:20:20;53910.38;;;-147.39;60.00
3524;BME280;1776;53.330;11.498;2022-10-04T18:22:49;53904.22;;;-147.39;59.82
3524;BME280;1776;53.330;11.498;2022-10-04T18:25:23;53853.00;;;-147.39;59.78
3524;BME280;1776;53.330;11.498;2022-10-04T18:30:57;53867.34;;;-147.39;59.29
3524;BME280;1776;53.330;11.498;2022-10-04T18:36:05;53853.00;;;-147.39;59.42
3524;BME280;1776;53.330;11.498;2022-10-04T18:38:40;53887.84;;;-147.39;59.51
3524;BME280;1776;53.330;11.498;2022-10-04T18:41:18;53842.75;;;-147.39;59.39
3524;BME280;1776;53.330;11.498;2022-10-04T18:44:03;53887.84;;;-147.39;59.84
3524;BME280;1776;53.330;11.498;2022-10-04T18:46:40;53906.28;;;-147.39;59.64
3524;BME280;1776;53.330;11.498;2022-10-04T18:49:22;53887.84;;;-147.39;60.00
3524;BME280;1776;53.330;11.498;2022-10-04T18:52:15;53904.22;;;-147.39;60.01
3524;BME280;1776;53.330;11.498;2022-10-04T18:57:37;53887.84;;;-147.39;60.24
3524;BME280;1776;53.330;11.498;2022-10-04T19:00:36;53910.38;;;-147.39;60.37
3524;BME280;1776;53.330;11.498;2022-10-04T19:03:34;53883.75;;;-147.39;60.29
3524;BME280;1776;53.330;11.498;2022-10-04T19:09:13;53920.63;;;-147.39;60.80
3524;BME280;1776;53.330;11.498;2022-10-04T19:11:51;53908.31;;;-147.39;60.97
3524;BME280;1776;53.330;11.498;2022-10-04T19:14:33;54109.09;;;-147.39;60.91
3524;BME280;1776;53.330;11.498;2022-10-04T19:27:42;53887.84;;;-147.39;60.28
3524;BME280;1776;53.330;11.498;2022-10-04T19:30:25;53887.84;;;-147.39;60.32
3524;BME280;1776;53.330;11.498;2022-10-04T19:36:09;53916.50;;;-147.39;60.38
3524;BME280;1776;53.330;11.498;2022-10-04T19:38:57;53898.06;;;-147.39;60.55
3524;BME280;1776;53.330;11.498;2022-10-04T19:41:46;53891.94;;;-147.39;60.68
3524;BME280;1776;53.330;11.498;2022-10-04T19:44:23;53947.25;;;-147.39;60.60
3524;BME280;1776;53.330;11.498;2022-10-04T19:47:00;53918.56;;;-147.39;60.63
3524;BME280;1776;53.330;11.498;2022-10-04T19:52:27;53898.06;;;-147.39;60.61
3524;BME280;1776;53.330;11.498;2022-10-04T19:55:04;53889.88;;;-147.39;60.67
3524;BME280;1776;53.330;11.498;2022-10-04T19:57:36;53885.78;;;-147.39;60.28
3524;BME280;1776;53.330;11.498;2022-10-04T20:00:09;53912.41;;;-147.39;60.23
3524;BME280;1776;53.330;11.498;2022-10-04T20:02:46;53904.22;;;-147.39;60.45
3524;BME280;1776;53.330;11.498;2022-10-04T20:05:13;53908.31;;;-147.39;60.55
3524;BME280;1776;53.330;11.498;2022-10-04T20:07:39;53904.22;;;-147.39;60.76
3524;BME280;1776;53.330;11.498;2022-10-04T20:10:23;53898.06;;;-147.39;61.24
3524;BME280;1776;53.330;11.498;2022-10-04T20:13:15;53918.56;;;-147.39;61.39
3524;BME280;1776;53.330;11.498;2022-10-04T20:15:56;53930.84;;;-147.39;61.59
3524;BME280;1776;53.330;11.498;2022-10-04T20:30:58;53930.84;;;-147.39;62.36
3524;BME280;1776;53.330;11.498;2022-10-04T20:38:57;53918.56;;;-147.39;62.51
3524;BME280;1776;53.330;11.498;2022-10-04T20:43:58;53922.66;;;-147.39;62.41
3524;BME280;1776;53.330;11.498;2022-10-04T20:46:48;53934.97;;;-147.39;62.65
3524;BME280;1776;53.330;11.498;2022-10-04T20:49:15;53891.94;;;-147.39;62.61
3524;BME280;1776;53.330;11.498;2022-10-04T20:51:46;53916.50;;;-147.39;62.61
3524;BME280;1776;53.330;11.498;2022-10-04T20:54:19;54037.41;;;-147.39;62.68
3524;BME280;1776;53.330;11.498;2022-10-04T20:56:47;53922.66;;;-147.39;62.84
3524;BME280;1776;53.330;11.498;2022-10-04T20:59:15;53916.50;;;-147.39;62.95